Molengracht — PCJG — position and weather

sailwx.info

Track history (hours):
 
Tides and Currents Weather Stations Pressure Air Temp Water Temp Dewpoint Dewpoint Depression Visibility Wind Speed Wind Dir Waves Ship Positions

Molengracht

Last reported at 2017-Apr-27 18:31 UTC. Time now 2017-Apr-27 18:44 UTC.
Position S 32°55' E 151°46'.

Length 143 m; draft 9 m.

Type: Cargo ship. MMSI: 246770000.

Date/timePositionNaut miles runAvg speedWind from/ knotsBaromVisibWave heightAir tempDewpointWater temp
2017-Apr-27 18:31S 32°55' E 151°46'0 0.0
2017-Apr-27 18:00S 32°55' E 151°46'0 0.0
2017-Apr-27 17:28S 32°55' E 151°46'0 0.0
2017-Apr-27 16:58S 32°55' E 151°46'0 0.0
2017-Apr-27 16:28S 32°55' E 151°46'0 0.0
2017-Apr-27 15:55S 32°55' E 151°46'0 0.0
2017-Apr-27 15:16S 32°55' E 151°46'0 0.0
2017-Apr-27 14:55S 32°55' E 151°46'0 0.0
2017-Apr-27 13:45S 32°55' E 151°46'0 0.0
2017-Apr-27 13:27S 32°55' E 151°46'0 0.0
2017-Apr-27 12:58S 32°55' E 151°46'0 0.0
2017-Apr-27 12:21S 32°55' E 151°46'0 0.0
2017-Apr-27 11:18S 32°55' E 151°46'0 0.0
2017-Apr-27 11:01S 32°55' E 151°46'0 0.0
2017-Apr-27 10:27S 32°55' E 151°46'0 0.0
2017-Apr-27 10:00S 32°55' E 151°46'0 0.0
2017-Apr-27 09:27S 32°55' E 151°46'0 0.0
2017-Apr-27 08:57S 32°55' E 151°46'0 0.0
2017-Apr-27 08:27S 32°55' E 151°46'0 0.0
2017-Apr-27 07:57S 32°55' E 151°46'0 0.0
2017-Apr-27 07:09S 32°55' E 151°46'0 0.0
2017-Apr-27 06:57S 32°55' E 151°46'0 0.0
2017-Apr-27 06:27S 32°55' E 151°46'0 0.0
2017-Apr-27 05:57S 32°55' E 151°46'0 0.0
2017-Apr-27 05:27S 32°55' E 151°46'0 0.0
2017-Apr-27 04:33S 32°55' E 151°46'0 0.1
2017-Apr-27 04:27S 32°55' E 151°46'0 0.0
2017-Apr-27 04:00S 32°55' E 151°46'0 0.0
2017-Apr-27 03:27S 32°55' E 151°46'0 0.0
2017-Apr-27 02:57S 32°55' E 151°46'0 0.0
2017-Apr-27 02:18S 32°55' E 151°46'0 0.0
2017-Apr-27 01:51S 32°55' E 151°46'0 0.0
2017-Apr-27 01:27S 32°55' E 151°46'0 0.0
2017-Apr-27 01:00S 32°55' E 151°46'0 0.0
2017-Apr-27 00:27S 32°55' E 151°46'0 0.0
2017-Apr-26 23:51S 32°55' E 151°46'0 0.0
2017-Apr-26 23:21S 32°55' E 151°46'0 0.0
2017-Apr-26 22:51S 32°55' E 151°46'0 0.0
2017-Apr-26 22:30S 32°55' E 151°46'0 0.0
2017-Apr-26 21:57S 32°55' E 151°46'0 0.0
2017-Apr-26 21:03S 32°55' E 151°46'0 0.0
2017-Apr-26 20:57S 32°55' E 151°46'0 0.0
2017-Apr-26 20:30S 32°55' E 151°46'0 0.0
2017-Apr-26 20:00S 32°55' E 151°46'0 0.0
2017-Apr-26 19:15S 32°55' E 151°46'0 0.0
2017-Apr-26 18:57S 32°55' E 151°46'0 0.0
2017-Apr-26 18:27S 32°55' E 151°46'0 0.0
2017-Apr-26 17:51S 32°55' E 151°46'0 0.0
2017-Apr-26 17:30S 32°55' E 151°46'1 1.0
2017-Apr-26 16:53S 32°55' E 151°47'3 6.8
2017-Apr-26 16:30S 32°55' E 151°50'5 7.9
2017-Apr-26 15:55S 32°59' E 151°53'2 5.5
2017-Apr-26 15:29S 32°60' E 151°56'2 4.5
2017-Apr-26 15:00S 32°58' E 151°58'3 5.3
2017-Apr-26 14:30S 32°57' E 152°00'6 6.2
2017-Apr-26 13:30S 32°53' E 152°06'3 5.6
2017-Apr-26 13:00S 32°52' E 152°09'3 5.4
2017-Apr-26 12:30S 32°51' E 152°12'612.6
2017-Apr-26 12:00S 32°46' E 152°18'713.6
2017-Apr-26 11:30S 32°42' E 152°24'713.2
2017-Apr-26 11:00S 32°37' E 152°29'612.7
2017-Apr-26 10:30S 32°32' E 152°34'713.2
2017-Apr-26 10:00S 32°27' E 152°39'  
Track history (hours):
 
Tides and Currents Weather Stations Pressure Air Temp Water Temp Dewpoint Dewpoint Depression Visibility Wind Speed Wind Dir Waves Ship Positions

Molengracht

Last reported at 2017-Apr-27 18:31 UTC. Time now 2017-Apr-27 18:44 UTC.
Position S 32°55' E 151°46'.

Length 143 m; draft 9 m.

Type: Cargo ship. MMSI: 246770000.

Date/timePositionNaut miles runAvg speedWind from/ knotsBaromVisibWave heightAir tempDewpointWater temp
2017-Apr-27 18:31S 32°55' E 151°46'0 0.0
2017-Apr-27 18:00S 32°55' E 151°46'0 0.0
2017-Apr-27 17:28S 32°55' E 151°46'0 0.0
2017-Apr-27 16:58S 32°55' E 151°46'0 0.0
2017-Apr-27 16:28S 32°55' E 151°46'0 0.0
2017-Apr-27 15:55S 32°55' E 151°46'0 0.0
2017-Apr-27 15:16S 32°55' E 151°46'0 0.0
2017-Apr-27 14:55S 32°55' E 151°46'0 0.0
2017-Apr-27 13:45S 32°55' E 151°46'0 0.0
2017-Apr-27 13:27S 32°55' E 151°46'0 0.0
2017-Apr-27 12:58S 32°55' E 151°46'0 0.0
2017-Apr-27 12:21S 32°55' E 151°46'0 0.0
2017-Apr-27 11:18S 32°55' E 151°46'0 0.0
2017-Apr-27 11:01S 32°55' E 151°46'0 0.0
2017-Apr-27 10:27S 32°55' E 151°46'0 0.0
2017-Apr-27 10:00S 32°55' E 151°46'0 0.0
2017-Apr-27 09:27S 32°55' E 151°46'0 0.0
2017-Apr-27 08:57S 32°55' E 151°46'0 0.0
2017-Apr-27 08:27S 32°55' E 151°46'0 0.0
2017-Apr-27 07:57S 32°55' E 151°46'0 0.0
2017-Apr-27 07:09S 32°55' E 151°46'0 0.0
2017-Apr-27 06:57S 32°55' E 151°46'0 0.0
2017-Apr-27 06:27S 32°55' E 151°46'0 0.0
2017-Apr-27 05:57S 32°55' E 151°46'0 0.0
2017-Apr-27 05:27S 32°55' E 151°46'0 0.0
2017-Apr-27 04:33S 32°55' E 151°46'0 0.1
2017-Apr-27 04:27S 32°55' E 151°46'0 0.0
2017-Apr-27 04:00S 32°55' E 151°46'0 0.0
2017-Apr-27 03:27S 32°55' E 151°46'0 0.0
2017-Apr-27 02:57S 32°55' E 151°46'0 0.0
2017-Apr-27 02:18S 32°55' E 151°46'0 0.0
2017-Apr-27 01:51S 32°55' E 151°46'0 0.0
2017-Apr-27 01:27S 32°55' E 151°46'0 0.0
2017-Apr-27 01:00S 32°55' E 151°46'0 0.0
2017-Apr-27 00:27S 32°55' E 151°46'0 0.0
2017-Apr-26 23:51S 32°55' E 151°46'0 0.0
2017-Apr-26 23:21S 32°55' E 151°46'0 0.0
2017-Apr-26 22:51S 32°55' E 151°46'0 0.0
2017-Apr-26 22:30S 32°55' E 151°46'0 0.0
2017-Apr-26 21:57S 32°55' E 151°46'0 0.0
2017-Apr-26 21:03S 32°55' E 151°46'0 0.0
2017-Apr-26 20:57S 32°55' E 151°46'0 0.0
2017-Apr-26 20:30S 32°55' E 151°46'0 0.0
2017-Apr-26 20:00S 32°55' E 151°46'0 0.0
2017-Apr-26 19:15S 32°55' E 151°46'0 0.0
2017-Apr-26 18:57S 32°55' E 151°46'0 0.0
2017-Apr-26 18:27S 32°55' E 151°46'0 0.0
2017-Apr-26 17:51S 32°55' E 151°46'0 0.0
2017-Apr-26 17:30S 32°55' E 151°46'1 1.0
2017-Apr-26 16:53S 32°55' E 151°47'3 6.8
2017-Apr-26 16:30S 32°55' E 151°50'5 7.9
2017-Apr-26 15:55S 32°59' E 151°53'2 5.5
2017-Apr-26 15:29S 32°60' E 151°56'2 4.5
2017-Apr-26 15:00S 32°58' E 151°58'3 5.3
2017-Apr-26 14:30S 32°57' E 152°00'6 6.2
2017-Apr-26 13:30S 32°53' E 152°06'3 5.6
2017-Apr-26 13:00S 32°52' E 152°09'3 5.4
2017-Apr-26 12:30S 32°51' E 152°12'612.6
2017-Apr-26 12:00S 32°46' E 152°18'713.6
2017-Apr-26 11:30S 32°42' E 152°24'713.2
2017-Apr-26 11:00S 32°37' E 152°29'612.7
2017-Apr-26 10:30S 32°32' E 152°34'713.2
2017-Apr-26 10:00S 32°27' E 152°39'  

Dump ship's entire track history